AAL1776 KBOS-KDCA
Flight info
| Callsign | AAL1776 |
|---|---|
| Flight time | 1h 7m |
| Altitude | 34000 |
| Route | PATSS7 PATSS NELIE Q75 MXE CLIPR3 |
| Aircraft | B738/M-SDE2E3FGHIRWXY/LB1 |
Departure
| Time | 2026-05-04 23:07 |
|---|---|
| Airport | Boston Logan International Airport (KBOS) |
Arrival
| Time | 2026-05-05 00:15 |
|---|---|
| Airport | Ronald Reagan Washington National Airport (KDCA) |
| Time | Latitude | Longitude | Altitude | Speed | Heading |
|---|---|---|---|---|---|
| 2026-05-04 22:39 | 42.35996 | -71.01831 | 29 ft | 0 kts | 21° |
| 2026-05-04 22:56 | 42.35988 | -71.01835 | 29 ft | 3 kts | 24° |
| 2026-05-04 22:56 | 42.35970 | -71.01847 | 29 ft | 3 kts | 37° |
| 2026-05-04 22:57 | 42.35956 | -71.01865 | 30 ft | 3 kts | 62° |
| 2026-05-04 22:57 | 42.35951 | -71.01887 | 29 ft | 3 kts | 104° |
| 2026-05-04 22:57 | 42.35955 | -71.01900 | 27 ft | 1 kts | 121° |
| 2026-05-04 22:57 | 42.35956 | -71.01903 | 27 ft | 0 kts | 121° |
| 2026-05-04 23:00 | 42.35950 | -71.01891 | 24 ft | 6 kts | 121° |
| 2026-05-04 23:00 | 42.35914 | -71.01778 | 27 ft | 19 kts | 104° |
| 2026-05-04 23:00 | 42.35888 | -71.01592 | 26 ft | 20 kts | 94° |
| 2026-05-04 23:01 | 42.35947 | -71.01522 | 26 ft | 13 kts | 19° |
| 2026-05-04 23:01 | 42.36067 | -71.01464 | 27 ft | 23 kts | 21° |
| 2026-05-04 23:01 | 42.36220 | -71.01391 | 28 ft | 23 kts | 18° |
| 2026-05-04 23:01 | 42.36370 | -71.01319 | 25 ft | 23 kts | 19° |
| 2026-05-04 23:02 | 42.36515 | -71.01247 | 26 ft | 22 kts | 20° |
| 2026-05-04 23:02 | 42.36657 | -71.01178 | 26 ft | 21 kts | 19° |
| 2026-05-04 23:02 | 42.36796 | -71.01163 | 25 ft | 21 kts | 328° |
| 2026-05-04 23:02 | 42.36907 | -71.01200 | 26 ft | 17 kts | 40° |
| 2026-05-04 23:03 | 42.36999 | -71.01104 | 24 ft | 16 kts | 30° |
| 2026-05-04 23:03 | 42.37109 | -71.01031 | 24 ft | 20 kts | 26° |
| 2026-05-04 23:03 | 42.37267 | -71.00928 | 24 ft | 28 kts | 25° |
| 2026-05-04 23:03 | 42.37458 | -71.00832 | 25 ft | 29 kts | 20° |
| 2026-05-04 23:04 | 42.37622 | -71.00750 | 24 ft | 23 kts | 21° |
| 2026-05-04 23:04 | 42.37770 | -71.00680 | 26 ft | 22 kts | 20° |
| 2026-05-04 23:04 | 42.37835 | -71.00593 | 26 ft | 0 kts | 97° |
| 2026-05-04 23:04 | 42.37834 | -71.00591 | 24 ft | 1 kts | 98° |
| 2026-05-04 23:05 | 42.37828 | -71.00557 | 26 ft | 7 kts | 107° |
| 2026-05-04 23:05 | 42.37779 | -71.00490 | 24 ft | 14 kts | 177° |
| 2026-05-04 23:05 | 42.37743 | -71.00498 | 26 ft | 0 kts | 198° |
| 2026-05-04 23:06 | 42.37704 | -71.00517 | 27 ft | 21 kts | 199° |
| 2026-05-04 23:07 | 42.37337 | -71.00694 | 27 ft | 89 kts | 199° |
| 2026-05-04 23:07 | 42.36562 | -71.01071 | 51 ft | 143 kts | 200° |
| 2026-05-04 23:07 | 42.35557 | -71.01564 | 558 ft | 154 kts | 202° |
| 2026-05-04 23:07 | 42.34510 | -71.01631 | 1422 ft | 153 kts | 170° |
| 2026-05-04 23:08 | 42.33488 | -71.00821 | 1838 ft | 197 kts | 140° |
| 2026-05-04 23:08 | 42.32570 | -70.99287 | 2252 ft | 217 kts | 135° |
| 2026-05-04 23:08 | 42.31660 | -70.97600 | 2783 ft | 230 kts | 123° |
| 2026-05-04 23:08 | 42.31259 | -70.95428 | 3301 ft | 252 kts | 97° |
| 2026-05-04 23:09 | 42.31447 | -70.92945 | 3560 ft | 283 kts | 78° |
| 2026-05-04 23:09 | 42.31877 | -70.90313 | 4323 ft | 289 kts | 79° |
| 2026-05-04 23:09 | 42.32286 | -70.87630 | 5155 ft | 293 kts | 78° |
| 2026-05-04 23:09 | 42.32682 | -70.84903 | 5982 ft | 298 kts | 78° |
| 2026-05-04 23:10 | 42.33069 | -70.82139 | 6782 ft | 301 kts | 81° |
| 2026-05-04 23:10 | 42.32944 | -70.79309 | 7568 ft | 305 kts | 108° |
| 2026-05-04 23:10 | 42.32061 | -70.76700 | 8410 ft | 306 kts | 119° |
| 2026-05-04 23:10 | 42.30974 | -70.74204 | 9158 ft | 311 kts | 129° |
| 2026-05-04 23:11 | 42.29307 | -70.72366 | 9889 ft | 310 kts | 159° |
| 2026-05-04 23:11 | 42.27243 | -70.71654 | 10549 ft | 308 kts | 182° |
| 2026-05-04 23:11 | 42.25119 | -70.71943 | 11227 ft | 307 kts | 194° |
| 2026-05-04 23:11 | 42.23013 | -70.72452 | 12048 ft | 308 kts | 195° |
| 2026-05-04 23:12 | 42.20961 | -70.73193 | 12911 ft | 302 kts | 211° |
| 2026-05-04 23:12 | 42.19353 | -70.74892 | 13743 ft | 297 kts | 232° |
| 2026-05-04 23:12 | 42.18269 | -70.77335 | 14023 ft | 315 kts | 252° |
| 2026-05-04 23:12 | 42.17764 | -70.80313 | 14196 ft | 337 kts | 259° |
| 2026-05-04 23:13 | 42.17362 | -70.83502 | 14581 ft | 350 kts | 261° |
| 2026-05-04 23:13 | 42.16952 | -70.86759 | 15222 ft | 355 kts | 261° |
| 2026-05-04 23:13 | 42.16524 | -70.90003 | 15950 ft | 357 kts | 261° |
| 2026-05-04 23:13 | 42.16076 | -70.93318 | 16686 ft | 360 kts | 261° |
| 2026-05-04 23:14 | 42.15677 | -70.96661 | 17399 ft | 362 kts | 263° |
| 2026-05-04 23:14 | 42.15364 | -71.00050 | 18102 ft | 365 kts | 264° |
| 2026-05-04 23:14 | 42.15076 | -71.03469 | 18712 ft | 368 kts | 265° |
| 2026-05-04 23:14 | 42.14789 | -71.06919 | 19305 ft | 372 kts | 265° |
| 2026-05-04 23:15 | 42.14497 | -71.10362 | 19872 ft | 375 kts | 265° |
| 2026-05-04 23:15 | 42.14192 | -71.13875 | 20458 ft | 378 kts | 265° |
| 2026-05-04 23:15 | 42.13884 | -71.17353 | 21008 ft | 381 kts | 265° |
| 2026-05-04 23:15 | 42.13564 | -71.20916 | 21541 ft | 385 kts | 265° |
| 2026-05-04 23:16 | 42.13238 | -71.24518 | 22087 ft | 388 kts | 265° |
| 2026-05-04 23:16 | 42.12907 | -71.28150 | 22626 ft | 391 kts | 265° |
| 2026-05-04 23:16 | 42.12573 | -71.31804 | 23156 ft | 395 kts | 265° |
| 2026-05-04 23:16 | 42.12234 | -71.35497 | 23625 ft | 398 kts | 265° |
| 2026-05-04 23:17 | 42.11891 | -71.39214 | 24067 ft | 400 kts | 266° |
| 2026-05-04 23:17 | 42.11549 | -71.42904 | 24535 ft | 401 kts | 266° |
| 2026-05-04 23:17 | 42.11200 | -71.46657 | 24989 ft | 403 kts | 266° |
| 2026-05-04 23:17 | 42.10850 | -71.50408 | 25421 ft | 405 kts | 266° |
| 2026-05-04 23:18 | 42.10497 | -71.54185 | 25842 ft | 407 kts | 266° |
| 2026-05-04 23:18 | 42.10141 | -71.57989 | 26221 ft | 409 kts | 266° |
| 2026-05-04 23:18 | 42.09781 | -71.61806 | 26629 ft | 411 kts | 266° |
| 2026-05-04 23:18 | 42.09424 | -71.65595 | 27015 ft | 413 kts | 266° |
| 2026-05-04 23:19 | 42.09057 | -71.69453 | 27402 ft | 415 kts | 266° |
| 2026-05-04 23:19 | 42.08642 | -71.73330 | 27765 ft | 418 kts | 264° |
| 2026-05-04 23:19 | 42.08106 | -71.77208 | 28127 ft | 421 kts | 263° |
| 2026-05-04 23:19 | 42.07516 | -71.81085 | 28464 ft | 424 kts | 263° |
| 2026-05-04 23:20 | 42.06918 | -71.84928 | 28863 ft | 424 kts | 263° |
| 2026-05-04 23:20 | 42.06313 | -71.88820 | 29404 ft | 421 kts | 263° |
| 2026-05-04 23:20 | 42.05721 | -71.92676 | 29963 ft | 418 kts | 263° |
| 2026-05-04 23:20 | 42.05144 | -71.96482 | 30306 ft | 419 kts | 263° |
| 2026-05-04 23:21 | 42.04564 | -72.00342 | 30591 ft | 421 kts | 264° |
| 2026-05-04 23:21 | 42.03986 | -72.04201 | 30930 ft | 421 kts | 264° |
| 2026-05-04 23:21 | 42.03407 | -72.08063 | 31348 ft | 419 kts | 264° |
| 2026-05-04 23:21 | 42.02836 | -72.11863 | 31704 ft | 419 kts | 264° |
| 2026-05-04 23:22 | 42.02258 | -72.15700 | 32031 ft | 419 kts | 264° |
| 2026-05-04 23:22 | 42.01675 | -72.19562 | 32348 ft | 420 kts | 264° |
| 2026-05-04 23:22 | 42.01093 | -72.23411 | 32712 ft | 419 kts | 264° |
| 2026-05-04 23:22 | 42.00508 | -72.27260 | 33034 ft | 419 kts | 264° |
| 2026-05-04 23:23 | 41.99923 | -72.31110 | 33321 ft | 420 kts | 264° |
| 2026-05-04 23:23 | 41.99336 | -72.34955 | 33659 ft | 420 kts | 264° |
| 2026-05-04 23:23 | 41.98748 | -72.38802 | 33859 ft | 422 kts | 264° |
| 2026-05-04 23:23 | 41.98155 | -72.42679 | 33851 ft | 424 kts | 264° |
| 2026-05-04 23:24 | 41.96968 | -72.50389 | 33835 ft | 420 kts | 264° |
| 2026-05-04 23:24 | 41.95782 | -72.58064 | 33840 ft | 417 kts | 264° |
| 2026-05-04 23:25 | 41.94439 | -72.65620 | 33832 ft | 424 kts | 255° |
| 2026-05-04 23:25 | 41.91452 | -72.72614 | 33843 ft | 441 kts | 237° |
| 2026-05-04 23:26 | 41.87181 | -72.78574 | 33844 ft | 447 kts | 231° |
| 2026-05-04 23:26 | 41.82759 | -72.84455 | 33841 ft | 447 kts | 231° |
| 2026-05-04 23:27 | 41.78352 | -72.90386 | 33867 ft | 448 kts | 232° |
| 2026-05-04 23:27 | 41.73997 | -72.96296 | 33857 ft | 448 kts | 232° |
| 2026-05-04 23:28 | 41.69610 | -73.02251 | 33874 ft | 449 kts | 232° |
| 2026-05-04 23:28 | 41.65212 | -73.08208 | 33890 ft | 449 kts | 231° |
| 2026-05-04 23:29 | 41.60836 | -73.14121 | 33887 ft | 450 kts | 231° |
| 2026-05-04 23:29 | 41.56424 | -73.20071 | 33886 ft | 450 kts | 231° |
| 2026-05-04 23:30 | 41.52015 | -73.26005 | 33890 ft | 450 kts | 231° |
| 2026-05-04 23:30 | 41.47627 | -73.31899 | 33881 ft | 450 kts | 231° |
| 2026-05-04 23:31 | 41.43248 | -73.37862 | 33879 ft | 449 kts | 232° |
| 2026-05-04 23:31 | 41.38907 | -73.43803 | 33864 ft | 449 kts | 231° |
| 2026-05-04 23:32 | 41.34529 | -73.49773 | 33883 ft | 449 kts | 231° |
| 2026-05-04 23:32 | 41.30146 | -73.55728 | 33881 ft | 449 kts | 231° |
| 2026-05-04 23:33 | 41.26001 | -73.61885 | 33885 ft | 444 kts | 237° |
| 2026-05-04 23:33 | 41.22183 | -73.68302 | 33856 ft | 444 kts | 237° |
| 2026-05-04 23:34 | 41.18330 | -73.74720 | 33873 ft | 444 kts | 237° |
| 2026-05-04 23:34 | 41.14456 | -73.81092 | 33880 ft | 443 kts | 237° |
| 2026-05-04 23:35 | 41.10619 | -73.87504 | 33879 ft | 443 kts | 237° |
| 2026-05-04 23:35 | 41.06796 | -73.93923 | 33872 ft | 443 kts | 237° |
| 2026-05-04 23:36 | 41.02983 | -74.00302 | 33862 ft | 443 kts | 237° |
| 2026-05-04 23:36 | 40.99166 | -74.06665 | 33875 ft | 443 kts | 237° |
| 2026-05-04 23:37 | 40.95331 | -74.13043 | 33872 ft | 443 kts | 237° |
| 2026-05-04 23:37 | 40.91489 | -74.19420 | 33868 ft | 443 kts | 237° |
| 2026-05-04 23:38 | 40.87636 | -74.25801 | 33864 ft | 443 kts | 236° |
| 2026-05-04 23:38 | 40.83810 | -74.32127 | 33867 ft | 443 kts | 236° |
| 2026-05-04 23:39 | 40.79960 | -74.38480 | 33876 ft | 443 kts | 236° |
| 2026-05-04 23:39 | 40.76105 | -74.44844 | 33887 ft | 443 kts | 236° |
| 2026-05-04 23:40 | 40.72267 | -74.51196 | 33850 ft | 443 kts | 236° |
| 2026-05-04 23:40 | 40.68423 | -74.57544 | 33862 ft | 443 kts | 236° |
| 2026-05-04 23:41 | 40.64575 | -74.63885 | 33862 ft | 443 kts | 236° |
| 2026-05-04 23:41 | 40.61367 | -74.69163 | 33861 ft | 444 kts | 236° |
| 2026-05-04 23:42 | 40.56803 | -74.76475 | 33860 ft | 446 kts | 232° |
| 2026-05-04 23:42 | 40.53254 | -74.81494 | 33861 ft | 447 kts | 231° |
| 2026-05-04 23:43 | 40.49004 | -74.87404 | 33870 ft | 447 kts | 231° |
| 2026-05-04 23:43 | 40.44759 | -74.93393 | 33886 ft | 446 kts | 231° |
| 2026-05-04 23:44 | 40.40556 | -74.99332 | 33887 ft | 447 kts | 231° |
| 2026-05-04 23:44 | 40.36306 | -75.05300 | 33866 ft | 447 kts | 231° |
| 2026-05-04 23:45 | 40.32112 | -75.11173 | 33882 ft | 447 kts | 231° |
| 2026-05-04 23:45 | 40.27857 | -75.17128 | 33890 ft | 446 kts | 231° |
| 2026-05-04 23:46 | 40.23607 | -75.23067 | 33542 ft | 451 kts | 231° |
| 2026-05-04 23:46 | 40.21482 | -75.26032 | 32946 ft | 449 kts | 231° |
| 2026-05-04 23:46 | 40.19352 | -75.29000 | 32277 ft | 447 kts | 230° |
| 2026-05-04 23:47 | 40.17225 | -75.31962 | 31585 ft | 446 kts | 230° |
| 2026-05-04 23:47 | 40.15108 | -75.34906 | 31098 ft | 441 kts | 230° |
| 2026-05-04 23:47 | 40.13016 | -75.37811 | 30588 ft | 436 kts | 230° |
| 2026-05-04 23:47 | 40.10949 | -75.40675 | 30201 ft | 430 kts | 230° |
| 2026-05-04 23:48 | 40.08903 | -75.43505 | 29669 ft | 426 kts | 230° |
| 2026-05-04 23:48 | 40.06882 | -75.46299 | 29182 ft | 420 kts | 230° |
| 2026-05-04 23:48 | 40.04910 | -75.49025 | 28684 ft | 415 kts | 230° |
| 2026-05-04 23:48 | 40.02933 | -75.51755 | 28199 ft | 410 kts | 230° |
| 2026-05-04 23:49 | 40.00979 | -75.54453 | 27722 ft | 406 kts | 230° |
| 2026-05-04 23:49 | 39.99050 | -75.57115 | 27217 ft | 401 kts | 230° |
| 2026-05-04 23:49 | 39.97138 | -75.59751 | 26748 ft | 401 kts | 230° |
| 2026-05-04 23:49 | 39.95207 | -75.62414 | 26278 ft | 404 kts | 230° |
| 2026-05-04 23:50 | 39.93305 | -75.65029 | 25797 ft | 401 kts | 230° |
| 2026-05-04 23:50 | 39.91421 | -75.67672 | 25324 ft | 395 kts | 233° |
| 2026-05-04 23:50 | 39.89788 | -75.70509 | 24917 ft | 387 kts | 239° |
| 2026-05-04 23:50 | 39.88302 | -75.73427 | 24449 ft | 384 kts | 240° |
| 2026-05-04 23:51 | 39.86860 | -75.76341 | 23992 ft | 380 kts | 240° |
| 2026-05-04 23:51 | 39.85438 | -75.79181 | 23549 ft | 378 kts | 240° |
| 2026-05-04 23:51 | 39.83988 | -75.82033 | 23021 ft | 375 kts | 239° |
| 2026-05-04 23:51 | 39.82541 | -75.84844 | 22522 ft | 372 kts | 239° |
| 2026-05-04 23:52 | 39.81103 | -75.87610 | 22082 ft | 368 kts | 239° |
| 2026-05-04 23:52 | 39.79671 | -75.90352 | 21635 ft | 364 kts | 239° |
| 2026-05-04 23:52 | 39.78247 | -75.93072 | 21158 ft | 361 kts | 238° |
| 2026-05-04 23:52 | 39.76830 | -75.95777 | 20725 ft | 360 kts | 238° |
| 2026-05-04 23:53 | 39.75432 | -75.98444 | 20287 ft | 360 kts | 238° |
| 2026-05-04 23:53 | 39.74022 | -76.01129 | 19847 ft | 357 kts | 238° |
| 2026-05-04 23:53 | 39.72630 | -76.03778 | 19475 ft | 352 kts | 238° |
| 2026-05-04 23:53 | 39.71256 | -76.06392 | 19044 ft | 349 kts | 238° |
| 2026-05-04 23:54 | 39.69890 | -76.08989 | 18618 ft | 346 kts | 238° |
| 2026-05-04 23:54 | 39.68545 | -76.11542 | 18203 ft | 344 kts | 238° |
| 2026-05-04 23:54 | 39.67199 | -76.14097 | 17726 ft | 341 kts | 238° |
| 2026-05-04 23:54 | 39.65865 | -76.16625 | 17323 ft | 337 kts | 238° |
| 2026-05-04 23:55 | 39.64543 | -76.19128 | 16948 ft | 334 kts | 238° |
| 2026-05-04 23:55 | 39.63230 | -76.21616 | 16533 ft | 334 kts | 238° |
| 2026-05-04 23:55 | 39.60592 | -76.26608 | 15682 ft | 335 kts | 238° |
| 2026-05-04 23:56 | 39.59266 | -76.29091 | 15250 ft | 334 kts | 236° |
| 2026-05-04 23:56 | 39.57632 | -76.31177 | 14821 ft | 337 kts | 218° |
| 2026-05-04 23:56 | 39.55675 | -76.32829 | 14428 ft | 335 kts | 217° |
| 2026-05-04 23:56 | 39.53723 | -76.34473 | 14003 ft | 333 kts | 217° |
| 2026-05-04 23:57 | 39.51792 | -76.36130 | 13565 ft | 331 kts | 218° |
| 2026-05-04 23:57 | 39.49878 | -76.37788 | 13095 ft | 329 kts | 218° |
| 2026-05-04 23:57 | 39.48003 | -76.39418 | 12671 ft | 326 kts | 218° |
| 2026-05-04 23:57 | 39.46124 | -76.41050 | 12247 ft | 324 kts | 218° |
| 2026-05-04 23:58 | 39.44249 | -76.42679 | 11923 ft | 317 kts | 218° |
| 2026-05-04 23:58 | 39.42454 | -76.44231 | 11806 ft | 305 kts | 218° |
| 2026-05-04 23:58 | 39.40739 | -76.45714 | 11669 ft | 295 kts | 218° |
| 2026-05-04 23:58 | 39.39054 | -76.47170 | 11556 ft | 286 kts | 219° |
| 2026-05-04 23:59 | 39.37414 | -76.48591 | 11473 ft | 282 kts | 219° |
| 2026-05-04 23:59 | 39.35794 | -76.49994 | 11359 ft | 279 kts | 219° |
| 2026-05-04 23:59 | 39.34182 | -76.51391 | 11264 ft | 277 kts | 219° |
| 2026-05-04 23:59 | 39.32580 | -76.52778 | 11146 ft | 276 kts | 219° |
| 2026-05-05 00:00 | 39.30989 | -76.54153 | 11018 ft | 275 kts | 219° |
| 2026-05-05 00:00 | 39.30496 | -76.54580 | 10976 ft | 274 kts | 219° |
| 2026-05-05 00:00 | 39.27850 | -76.56866 | 10796 ft | 273 kts | 219° |
| 2026-05-05 00:00 | 39.26291 | -76.58212 | 10665 ft | 272 kts | 219° |
| 2026-05-05 00:01 | 39.24714 | -76.59572 | 10546 ft | 272 kts | 219° |
| 2026-05-05 00:01 | 39.23138 | -76.60932 | 10442 ft | 273 kts | 219° |
| 2026-05-05 00:01 | 39.21559 | -76.62292 | 10325 ft | 273 kts | 219° |
| 2026-05-05 00:01 | 39.19973 | -76.63657 | 10205 ft | 274 kts | 219° |
| 2026-05-05 00:02 | 39.18386 | -76.65023 | 10091 ft | 274 kts | 219° |
| 2026-05-05 00:02 | 39.16812 | -76.66403 | 10025 ft | 273 kts | 222° |
| 2026-05-05 00:02 | 39.15376 | -76.67990 | 10010 ft | 270 kts | 227° |
| 2026-05-05 00:02 | 39.14026 | -76.69625 | 10008 ft | 269 kts | 228° |
| 2026-05-05 00:03 | 39.12668 | -76.71285 | 10038 ft | 269 kts | 228° |
| 2026-05-05 00:03 | 39.11304 | -76.72942 | 9906 ft | 270 kts | 227° |
| 2026-05-05 00:03 | 39.09930 | -76.74596 | 9744 ft | 270 kts | 227° |
| 2026-05-05 00:03 | 39.08547 | -76.76250 | 9534 ft | 271 kts | 227° |
| 2026-05-05 00:04 | 39.07174 | -76.77884 | 9287 ft | 267 kts | 227° |
| 2026-05-05 00:04 | 39.05838 | -76.79469 | 9053 ft | 262 kts | 226° |
| 2026-05-05 00:04 | 39.04508 | -76.81043 | 8793 ft | 257 kts | 226° |
| 2026-05-05 00:04 | 39.03185 | -76.82608 | 8568 ft | 253 kts | 226° |
| 2026-05-05 00:05 | 39.01900 | -76.84128 | 8328 ft | 249 kts | 226° |
| 2026-05-05 00:05 | 39.00648 | -76.85604 | 8096 ft | 245 kts | 225° |
| 2026-05-05 00:05 | 38.99400 | -76.87076 | 7811 ft | 242 kts | 225° |
| 2026-05-05 00:05 | 38.98190 | -76.88535 | 7439 ft | 236 kts | 230° |
| 2026-05-05 00:06 | 38.97438 | -76.90361 | 7081 ft | 230 kts | 253° |
| 2026-05-05 00:06 | 38.97229 | -76.92385 | 6719 ft | 231 kts | 267° |
| 2026-05-05 00:06 | 38.97298 | -76.94461 | 6363 ft | 231 kts | 269° |
| 2026-05-05 00:06 | 38.97390 | -76.96525 | 5978 ft | 232 kts | 269° |
| 2026-05-05 00:07 | 38.97474 | -76.98594 | 5603 ft | 232 kts | 269° |
| 2026-05-05 00:07 | 38.97552 | -77.00663 | 5225 ft | 231 kts | 269° |
| 2026-05-05 00:07 | 38.97926 | -77.02689 | 4834 ft | 240 kts | 292° |
| 2026-05-05 00:07 | 38.98943 | -77.04423 | 4477 ft | 247 kts | 309° |
| 2026-05-05 00:08 | 39.00178 | -77.05917 | 4103 ft | 243 kts | 311° |
| 2026-05-05 00:08 | 39.01405 | -77.07351 | 3702 ft | 232 kts | 311° |
| 2026-05-05 00:08 | 39.02570 | -77.08730 | 3323 ft | 224 kts | 311° |
| 2026-05-05 00:08 | 39.03498 | -77.10277 | 2942 ft | 214 kts | 285° |
| 2026-05-05 00:09 | 39.03653 | -77.12104 | 2615 ft | 203 kts | 261° |
| 2026-05-05 00:09 | 39.03534 | -77.13879 | 2237 ft | 197 kts | 259° |
| 2026-05-05 00:09 | 39.03257 | -77.15505 | 2050 ft | 178 kts | 238° |
| 2026-05-05 00:09 | 39.02381 | -77.16440 | 2035 ft | 165 kts | 198° |
| 2026-05-05 00:10 | 39.01234 | -77.16370 | 2040 ft | 167 kts | 171° |
| 2026-05-05 00:10 | 39.00100 | -77.15991 | 2031 ft | 169 kts | 174° |
| 2026-05-05 00:10 | 38.98934 | -77.15748 | 2017 ft | 170 kts | 176° |
| 2026-05-05 00:10 | 38.97765 | -77.15523 | 2000 ft | 169 kts | 176° |
| 2026-05-05 00:11 | 38.96608 | -77.15298 | 1995 ft | 169 kts | 170° |
| 2026-05-05 00:11 | 38.95635 | -77.14438 | 2032 ft | 179 kts | 145° |
| 2026-05-05 00:11 | 38.94677 | -77.13353 | 2014 ft | 184 kts | 146° |
| 2026-05-05 00:11 | 38.93723 | -77.12287 | 1950 ft | 183 kts | 145° |
| 2026-05-05 00:12 | 38.92735 | -77.11327 | 1739 ft | 166 kts | 158° |
| 2026-05-05 00:12 | 38.91757 | -77.10712 | 1504 ft | 149 kts | 160° |
| 2026-05-05 00:12 | 38.90934 | -77.10024 | 1367 ft | 141 kts | 136° |
| 2026-05-05 00:12 | 38.90564 | -77.08840 | 1078 ft | 150 kts | 108° |
| 2026-05-05 00:13 | 38.90278 | -77.07581 | 891 ft | 144 kts | 119° |
| 2026-05-05 00:13 | 38.89695 | -77.06619 | 653 ft | 134 kts | 144° |
| 2026-05-05 00:13 | 38.88974 | -77.05813 | 582 ft | 139 kts | 142° |
| 2026-05-05 00:13 | 38.88304 | -77.05002 | 514 ft | 131 kts | 142° |
| 2026-05-05 00:14 | 38.87580 | -77.04293 | 398 ft | 132 kts | 153° |
| 2026-05-05 00:14 | 38.86723 | -77.03929 | 197 ft | 129 kts | 178° |
| 2026-05-05 00:14 | 38.85862 | -77.03843 | 37 ft | 115 kts | 177° |
| 2026-05-05 00:14 | 38.85189 | -77.03781 | 25 ft | 70 kts | 175° |
| 2026-05-05 00:15 | 38.84903 | -77.03788 | 22 ft | 23 kts | 222° |
| 2026-05-05 00:15 | 38.84878 | -77.03907 | 23 ft | 11 kts | 276° |
| 2026-05-05 00:15 | 38.84940 | -77.03955 | 24 ft | 11 kts | 353° |
| 2026-05-05 00:15 | 38.85024 | -77.03964 | 25 ft | 13 kts | 356° |
| 2026-05-05 00:16 | 38.85121 | -77.03973 | 24 ft | 10 kts | 359° |
| 2026-05-05 00:16 | 38.85172 | -77.03936 | 25 ft | 11 kts | 27° |
| 2026-05-05 00:16 | 38.85295 | -77.03931 | 23 ft | 22 kts | 355° |
| 2026-05-05 00:16 | 38.85449 | -77.03947 | 23 ft | 22 kts | 355° |
| 2026-05-05 00:17 | 38.85555 | -77.03997 | 26 ft | 13 kts | 277° |
| 2026-05-05 00:17 | 38.85533 | -77.04106 | 23 ft | 11 kts | 251° |
| 2026-05-05 00:17 | 38.85512 | -77.04142 | 23 ft | 4 kts | 208° |
| 2026-05-05 00:17 | 38.85485 | -77.04147 | 23 ft | 4 kts | 172° |
| 2026-05-05 00:18 | 38.85475 | -77.04145 | 25 ft | 0 kts | 172° |